Admire, Kansas
Current Conditions -  °F | °C
As of 6:19 AM on Monday 20 Oct 2014 (Local Time) from KEMP Reporting Station
Haze Haze  
Wind Chill: 49°   Ceiling: Unl
Heat Index: 49°   Visibility: 2mi
Dew Point: 49°   Wind: 3mph
Humidity: 100%   Direction: 320°NW
Pressure: 30.03"   Gusts: NA
Location:  38.64°N, 96.1°W
Report Text: KEMP 201119Z AUTO 32003KT 2SM BR FEW022 09/09 A3003 RMK AO2 T00940094 $
Loading
Personal Weather Stations






























Interactive Weather Map New forecast layout! Learn more

10-Day Weather Forecast

Advertisements
Track Severe Weather on mobile